首页
METAR-TAF:

METAR-TAF

机场 :

Caro, 密歇根州, 美国

纬度: 43-27-31N, 经度: 083-26-43W, 海拔: 214米

当前天气观测

该预报发布于14分钟前的16:36 UTC
风速12节,风向南转西南,有时为22节阵风
温度 5°C
湿度 70%
气压 1014 hPa
能見度: 16.1公里
散云层高于1900英尺

METAR: KCFS 081636Z AUTO 20012G22KT 10SM SCT019 05/00 A2993 RMK AO2 T00520000

时间: 11:50 (16:50 UTC)


TAF: 丢失

超过4000个机场的气象观测和天气预报(METAR&TAF报告)。

可查询的气象台以黄色和红色小点在地图上表示。

将鼠标移到小点上方,可查看气象台名称。

然后点击查看天气观测和预报。

如需切换地图:点击带黑十字的绿色按钮放大地图;点击带横线的绿色按钮缩小地图;或者点击绿色箭头查看邻近地区的地图。


METAR-TAF: